sensor_id;sensor_type;location;lat;lon;timestamp;P1;durP1;ratioP1;P2;durP2;ratioP2
80199;SDS011;69520;44.900;-0.764;2023-07-09T00:02:09;7.10;;;1.73;;
80199;SDS011;69520;44.900;-0.764;2023-07-09T00:04:36;7.10;;;1.50;;
80199;SDS011;69520;44.900;-0.764;2023-07-09T00:07:03;7.05;;;1.60;;
80199;SDS011;69520;44.900;-0.764;2023-07-09T00:09:29;8.88;;;1.60;;
80199;SDS011;69520;44.900;-0.764;2023-07-09T00:11:56;8.00;;;1.85;;
80199;SDS011;69520;44.900;-0.764;2023-07-09T00:14:22;8.40;;;1.67;;
80199;SDS011;69520;44.900;-0.764;2023-07-09T00:16:48;6.75;;;1.60;;
80199;SDS011;69520;44.900;-0.764;2023-07-09T00:19:18;7.90;;;1.70;;
80199;SDS011;69520;44.900;-0.764;2023-07-09T00:21:45;7.07;;;1.63;;
80199;SDS011;69520;44.900;-0.764;2023-07-09T00:24:12;9.35;;;2.10;;
80199;SDS011;69520;44.900;-0.764;2023-07-09T00:26:38;8.77;;;1.90;;
80199;SDS011;69520;44.900;-0.764;2023-07-09T00:29:15;6.75;;;1.80;;
80199;SDS011;69520;44.900;-0.764;2023-07-09T00:31:41;8.80;;;1.63;;
80199;SDS011;69520;44.900;-0.764;2023-07-09T00:34:10;5.93;;;1.50;;
80199;SDS011;69520;44.900;-0.764;2023-07-09T00:36:37;8.57;;;1.73;;
80199;SDS011;69520;44.900;-0.764;2023-07-09T00:39:03;8.77;;;1.90;;
80199;SDS011;69520;44.900;-0.764;2023-07-09T00:41:31;8.25;;;1.83;;
80199;SDS011;69520;44.900;-0.764;2023-07-09T00:43:59;9.00;;;1.95;;
80199;SDS011;69520;44.900;-0.764;2023-07-09T00:49:05;8.25;;;1.85;;
80199;SDS011;69520;44.900;-0.764;2023-07-09T00:51:35;7.27;;;1.53;;
80199;SDS011;69520;44.900;-0.764;2023-07-09T00:54:04;7.85;;;1.70;;
80199;SDS011;69520;44.900;-0.764;2023-07-09T00:56:34;8.27;;;1.60;;
80199;SDS011;69520;44.900;-0.764;2023-07-09T00:59:04;7.63;;;1.70;;
80199;SDS011;69520;44.900;-0.764;2023-07-09T01:01:31;7.50;;;1.58;;
80199;SDS011;69520;44.900;-0.764;2023-07-09T01:03:58;9.40;;;1.80;;
80199;SDS011;69520;44.900;-0.764;2023-07-09T01:06:36;7.82;;;1.30;;
80199;SDS011;69520;44.900;-0.764;2023-07-09T01:09:03;7.05;;;1.73;;
80199;SDS011;69520;44.900;-0.764;2023-07-09T01:11:29;7.50;;;1.50;;
80199;SDS011;69520;44.900;-0.764;2023-07-09T01:14:00;6.55;;;1.40;;
80199;SDS011;69520;44.900;-0.764;2023-07-09T01:16:36;7.20;;;1.60;;
80199;SDS011;69520;44.900;-0.764;2023-07-09T01:19:03;7.32;;;1.50;;
80199;SDS011;69520;44.900;-0.764;2023-07-09T01:21:29;8.07;;;1.40;;
80199;SDS011;69520;44.900;-0.764;2023-07-09T01:23:56;7.25;;;1.52;;
80199;SDS011;69520;44.900;-0.764;2023-07-09T01:26:23;6.68;;;1.55;;
80199;SDS011;69520;44.900;-0.764;2023-07-09T01:28:50;7.87;;;1.50;;
80199;SDS011;69520;44.900;-0.764;2023-07-09T01:31:16;7.72;;;1.23;;
80199;SDS011;69520;44.900;-0.764;2023-07-09T01:33:43;6.93;;;1.42;;
80199;SDS011;69520;44.900;-0.764;2023-07-09T01:36:19;7.88;;;1.38;;
80199;SDS011;69520;44.900;-0.764;2023-07-09T01:38:49;8.00;;;1.50;;
80199;SDS011;69520;44.900;-0.764;2023-07-09T01:41:16;5.93;;;1.40;;
80199;SDS011;69520;44.900;-0.764;2023-07-09T01:43:43;9.98;;;1.70;;
80199;SDS011;69520;44.900;-0.764;2023-07-09T01:46:10;6.20;;;1.25;;
80199;SDS011;69520;44.900;-0.764;2023-07-09T01:48:37;8.07;;;1.63;;
80199;SDS011;69520;44.900;-0.764;2023-07-09T01:51:09;8.20;;;1.38;;
80199;SDS011;69520;44.900;-0.764;2023-07-09T01:53:35;6.23;;;1.47;;
80199;SDS011;69520;44.900;-0.764;2023-07-09T01:56:03;7.22;;;1.75;;
80199;SDS011;69520;44.900;-0.764;2023-07-09T01:58:33;8.75;;;1.35;;
80199;SDS011;69520;44.900;-0.764;2023-07-09T02:00:59;9.63;;;1.70;;
80199;SDS011;69520;44.900;-0.764;2023-07-09T02:03:25;6.93;;;1.40;;
80199;SDS011;69520;44.900;-0.764;2023-07-09T02:05:54;7.10;;;1.30;;
80199;SDS011;69520;44.900;-0.764;2023-07-09T02:08:20;7.32;;;1.50;;
80199;SDS011;69520;44.900;-0.764;2023-07-09T02:10:49;5.93;;;1.30;;
80199;SDS011;69520;44.900;-0.764;2023-07-09T02:13:15;8.48;;;1.77;;
80199;SDS011;69520;44.900;-0.764;2023-07-09T02:15:44;8.30;;;1.35;;
80199;SDS011;69520;44.900;-0.764;2023-07-09T02:18:10;6.40;;;1.40;;
80199;SDS011;69520;44.900;-0.764;2023-07-09T02:20:37;7.43;;;1.73;;
80199;SDS011;69520;44.900;-0.764;2023-07-09T02:23:03;8.20;;;1.50;;
80199;SDS011;69520;44.900;-0.764;2023-07-09T02:25:29;9.93;;;1.52;;
80199;SDS011;69520;44.900;-0.764;2023-07-09T02:27:55;9.88;;;1.50;;
80199;SDS011;69520;44.900;-0.764;2023-07-09T02:30:21;9.43;;;1.83;;
80199;SDS011;69520;44.900;-0.764;2023-07-09T02:32:47;8.63;;;1.38;;
80199;SDS011;69520;44.900;-0.764;2023-07-09T02:35:13;8.48;;;1.73;;
80199;SDS011;69520;44.900;-0.764;2023-07-09T02:37:39;9.10;;;1.60;;
80199;SDS011;69520;44.900;-0.764;2023-07-09T02:40:05;9.45;;;1.75;;
80199;SDS011;69520;44.900;-0.764;2023-07-09T02:42:31;6.23;;;1.40;;
80199;SDS011;69520;44.900;-0.764;2023-07-09T02:44:57;6.55;;;1.40;;
80199;SDS011;69520;44.900;-0.764;2023-07-09T02:47:23;9.10;;;1.65;;
80199;SDS011;69520;44.900;-0.764;2023-07-09T02:49:49;7.68;;;1.52;;
80199;SDS011;69520;44.900;-0.764;2023-07-09T02:52:15;8.73;;;1.50;;
80199;SDS011;69520;44.900;-0.764;2023-07-09T02:54:41;8.47;;;1.70;;
80199;SDS011;69520;44.900;-0.764;2023-07-09T02:57:07;10.38;;;1.80;;
80199;SDS011;69520;44.900;-0.764;2023-07-09T02:59:34;7.75;;;1.38;;
80199;SDS011;69520;44.900;-0.764;2023-07-09T03:02:00;8.18;;;1.50;;
80199;SDS011;69520;44.900;-0.764;2023-07-09T03:04:26;11.45;;;1.55;;
80199;SDS011;69520;44.900;-0.764;2023-07-09T03:06:52;9.13;;;1.60;;
80199;SDS011;69520;44.900;-0.764;2023-07-09T03:09:18;9.23;;;1.88;;
80199;SDS011;69520;44.900;-0.764;2023-07-09T03:11:45;8.90;;;1.60;;
80199;SDS011;69520;44.900;-0.764;2023-07-09T03:14:11;10.90;;;1.80;;
80199;SDS011;69520;44.900;-0.764;2023-07-09T03:16:37;11.13;;;2.00;;
80199;SDS011;69520;44.900;-0.764;2023-07-09T03:19:03;8.03;;;1.57;;
80199;SDS011;69520;44.900;-0.764;2023-07-09T03:21:29;10.10;;;1.60;;
80199;SDS011;69520;44.900;-0.764;2023-07-09T03:23:55;8.48;;;1.50;;
80199;SDS011;69520;44.900;-0.764;2023-07-09T03:26:21;7.38;;;1.30;;
80199;SDS011;69520;44.900;-0.764;2023-07-09T03:28:47;8.68;;;1.67;;
80199;SDS011;69520;44.900;-0.764;2023-07-09T03:31:13;7.30;;;1.50;;
80199;SDS011;69520;44.900;-0.764;2023-07-09T03:33:39;7.50;;;1.40;;
80199;SDS011;69520;44.900;-0.764;2023-07-09T03:36:05;9.27;;;1.50;;
80199;SDS011;69520;44.900;-0.764;2023-07-09T03:38:32;8.77;;;1.95;;
80199;SDS011;69520;44.900;-0.764;2023-07-09T03:40:58;5.55;;;1.40;;
80199;SDS011;69520;44.900;-0.764;2023-07-09T03:43:24;5.40;;;1.40;;
80199;SDS011;69520;44.900;-0.764;2023-07-09T03:45:50;8.65;;;1.60;;
80199;SDS011;69520;44.900;-0.764;2023-07-09T03:48:17;4.93;;;1.08;;
80199;SDS011;69520;44.900;-0.764;2023-07-09T03:50:44;7.50;;;1.30;;
80199;SDS011;69520;44.900;-0.764;2023-07-09T03:53:11;6.55;;;1.25;;
80199;SDS011;69520;44.900;-0.764;2023-07-09T03:55:37;7.77;;;1.70;;
80199;SDS011;69520;44.900;-0.764;2023-07-09T03:58:03;6.82;;;1.40;;
80199;SDS011;69520;44.900;-0.764;2023-07-09T04:00:30;5.20;;;1.00;;
80199;SDS011;69520;44.900;-0.764;2023-07-09T04:02:56;4.72;;;1.20;;
80199;SDS011;69520;44.900;-0.764;2023-07-09T04:05:23;5.25;;;1.25;;
80199;SDS011;69520;44.900;-0.764;2023-07-09T04:07:49;6.97;;;1.23;;
80199;SDS011;69520;44.900;-0.764;2023-07-09T04:10:15;6.18;;;1.30;;
80199;SDS011;69520;44.900;-0.764;2023-07-09T04:12:41;5.65;;;1.25;;
80199;SDS011;69520;44.900;-0.764;2023-07-09T04:15:07;6.80;;;1.63;;
80199;SDS011;69520;44.900;-0.764;2023-07-09T04:17:33;6.93;;;1.17;;
80199;SDS011;69520;44.900;-0.764;2023-07-09T04:19:59;6.53;;;1.20;;
80199;SDS011;69520;44.900;-0.764;2023-07-09T04:22:25;6.57;;;1.40;;
80199;SDS011;69520;44.900;-0.764;2023-07-09T04:24:51;5.85;;;1.40;;
80199;SDS011;69520;44.900;-0.764;2023-07-09T04:27:18;6.68;;;1.23;;
80199;SDS011;69520;44.900;-0.764;2023-07-09T04:29:44;7.90;;;1.42;;
80199;SDS011;69520;44.900;-0.764;2023-07-09T04:32:11;4.97;;;1.10;;
80199;SDS011;69520;44.900;-0.764;2023-07-09T04:34:37;8.00;;;1.38;;
80199;SDS011;69520;44.900;-0.764;2023-07-09T04:37:05;7.13;;;1.10;;
80199;SDS011;69520;44.900;-0.764;2023-07-09T04:39:32;6.45;;;1.10;;
80199;SDS011;69520;44.900;-0.764;2023-07-09T04:41:58;7.85;;;1.55;;
80199;SDS011;69520;44.900;-0.764;2023-07-09T04:44:24;6.20;;;1.10;;
80199;SDS011;69520;44.900;-0.764;2023-07-09T04:46:50;6.47;;;1.25;;
80199;SDS011;69520;44.900;-0.764;2023-07-09T04:49:16;7.63;;;1.30;;
80199;SDS011;69520;44.900;-0.764;2023-07-09T04:51:42;7.28;;;1.08;;
80199;SDS011;69520;44.900;-0.764;2023-07-09T04:54:08;7.45;;;1.10;;
80199;SDS011;69520;44.900;-0.764;2023-07-09T04:56:34;6.37;;;1.33;;
80199;SDS011;69520;44.900;-0.764;2023-07-09T04:59:02;7.18;;;1.33;;
80199;SDS011;69520;44.900;-0.764;2023-07-09T05:01:28;7.32;;;1.10;;
80199;SDS011;69520;44.900;-0.764;2023-07-09T05:03:54;5.43;;;1.00;;
80199;SDS011;69520;44.900;-0.764;2023-07-09T05:06:21;6.38;;;1.15;;
80199;SDS011;69520;44.900;-0.764;2023-07-09T05:08:47;5.90;;;0.93;;
80199;SDS011;69520;44.900;-0.764;2023-07-09T05:11:14;4.85;;;1.38;;
80199;SDS011;69520;44.900;-0.764;2023-07-09T05:13:40;6.97;;;1.30;;
80199;SDS011;69520;44.900;-0.764;2023-07-09T05:16:06;5.57;;;1.10;;
80199;SDS011;69520;44.900;-0.764;2023-07-09T05:18:32;7.07;;;1.40;;
80199;SDS011;69520;44.900;-0.764;2023-07-09T05:20:58;5.37;;;1.33;;
80199;SDS011;69520;44.900;-0.764;2023-07-09T05:23:25;8.20;;;1.50;;
80199;SDS011;69520;44.900;-0.764;2023-07-09T05:25:57;6.82;;;1.13;;
80199;SDS011;69520;44.900;-0.764;2023-07-09T05:28:23;7.32;;;1.40;;
80199;SDS011;69520;44.900;-0.764;2023-07-09T05:30:49;7.28;;;1.50;;
80199;SDS011;69520;44.900;-0.764;2023-07-09T05:33:16;5.87;;;1.40;;
80199;SDS011;69520;44.900;-0.764;2023-07-09T05:35:43;6.25;;;1.15;;
80199;SDS011;69520;44.900;-0.764;2023-07-09T05:38:09;6.65;;;1.38;;
80199;SDS011;69520;44.900;-0.764;2023-07-09T05:40:35;5.40;;;1.08;;
80199;SDS011;69520;44.900;-0.764;2023-07-09T05:43:01;7.00;;;1.25;;
80199;SDS011;69520;44.900;-0.764;2023-07-09T05:45:28;6.10;;;1.47;;
80199;SDS011;69520;44.900;-0.764;2023-07-09T05:47:54;6.25;;;1.42;;
80199;SDS011;69520;44.900;-0.764;2023-07-09T05:50:20;7.18;;;1.48;;
80199;SDS011;69520;44.900;-0.764;2023-07-09T05:52:46;6.43;;;1.38;;
80199;SDS011;69520;44.900;-0.764;2023-07-09T05:55:11;6.03;;;1.10;;
80199;SDS011;69520;44.900;-0.764;2023-07-09T05:57:38;7.87;;;1.53;;
80199;SDS011;69520;44.900;-0.764;2023-07-09T06:00:04;6.63;;;1.55;;
80199;SDS011;69520;44.900;-0.764;2023-07-09T06:02:32;5.78;;;1.20;;
80199;SDS011;69520;44.900;-0.764;2023-07-09T06:04:58;7.00;;;1.38;;
80199;SDS011;69520;44.900;-0.764;2023-07-09T06:07:24;6.80;;;1.60;;
80199;SDS011;69520;44.900;-0.764;2023-07-09T06:09:50;6.97;;;1.27;;
80199;SDS011;69520;44.900;-0.764;2023-07-09T06:12:17;6.47;;;1.58;;
80199;SDS011;69520;44.900;-0.764;2023-07-09T06:14:44;7.85;;;1.65;;
80199;SDS011;69520;44.900;-0.764;2023-07-09T06:17:10;8.10;;;1.80;;
80199;SDS011;69520;44.900;-0.764;2023-07-09T06:19:37;8.90;;;1.42;;
80199;SDS011;69520;44.900;-0.764;2023-07-09T06:22:03;8.90;;;1.60;;
80199;SDS011;69520;44.900;-0.764;2023-07-09T06:24:29;6.80;;;1.85;;
80199;SDS011;69520;44.900;-0.764;2023-07-09T06:26:55;6.97;;;1.40;;
80199;SDS011;69520;44.900;-0.764;2023-07-09T06:29:21;7.95;;;1.65;;
80199;SDS011;69520;44.900;-0.764;2023-07-09T06:31:47;6.43;;;1.60;;
80199;SDS011;69520;44.900;-0.764;2023-07-09T06:34:13;8.07;;;1.30;;
80199;SDS011;69520;44.900;-0.764;2023-07-09T06:36:39;6.93;;;1.75;;
80199;SDS011;69520;44.900;-0.764;2023-07-09T06:39:05;5.75;;;1.48;;
80199;SDS011;69520;44.900;-0.764;2023-07-09T06:41:31;8.98;;;1.70;;
80199;SDS011;69520;44.900;-0.764;2023-07-09T06:44:03;9.00;;;1.83;;
80199;SDS011;69520;44.900;-0.764;2023-07-09T06:46:29;9.23;;;1.73;;
80199;SDS011;69520;44.900;-0.764;2023-07-09T06:48:55;6.57;;;1.55;;
80199;SDS011;69520;44.900;-0.764;2023-07-09T06:51:21;7.50;;;1.55;;
80199;SDS011;69520;44.900;-0.764;2023-07-09T06:53:47;7.75;;;1.40;;
80199;SDS011;69520;44.900;-0.764;2023-07-09T06:56:16;7.05;;;1.80;;
80199;SDS011;69520;44.900;-0.764;2023-07-09T06:58:42;7.73;;;1.80;;
80199;SDS011;69520;44.900;-0.764;2023-07-09T07:01:09;6.88;;;1.40;;
80199;SDS011;69520;44.900;-0.764;2023-07-09T07:03:36;7.68;;;1.58;;
80199;SDS011;69520;44.900;-0.764;2023-07-09T07:06:02;9.63;;;2.42;;
80199;SDS011;69520;44.900;-0.764;2023-07-09T07:08:31;9.90;;;3.47;;
80199;SDS011;69520;44.900;-0.764;2023-07-09T07:10:58;11.43;;;2.30;;
80199;SDS011;69520;44.900;-0.764;2023-07-09T07:13:31;6.90;;;2.00;;
80199;SDS011;69520;44.900;-0.764;2023-07-09T07:15:57;9.35;;;2.45;;
80199;SDS011;69520;44.900;-0.764;2023-07-09T07:18:24;9.05;;;2.17;;
80199;SDS011;69520;44.900;-0.764;2023-07-09T07:20:50;8.27;;;2.03;;
80199;SDS011;69520;44.900;-0.764;2023-07-09T07:23:16;6.93;;;1.70;;
80199;SDS011;69520;44.900;-0.764;2023-07-09T07:25:42;9.18;;;2.05;;
80199;SDS011;69520;44.900;-0.764;2023-07-09T07:28:08;8.77;;;1.73;;
80199;SDS011;69520;44.900;-0.764;2023-07-09T07:30:34;7.05;;;1.70;;
80199;SDS011;69520;44.900;-0.764;2023-07-09T07:33:00;8.60;;;1.85;;
80199;SDS011;69520;44.900;-0.764;2023-07-09T07:35:26;9.50;;;1.90;;
80199;SDS011;69520;44.900;-0.764;2023-07-09T07:37:52;8.10;;;1.80;;
80199;SDS011;69520;44.900;-0.764;2023-07-09T07:40:18;6.57;;;1.48;;
80199;SDS011;69520;44.900;-0.764;2023-07-09T07:42:44;9.07;;;1.73;;
80199;SDS011;69520;44.900;-0.764;2023-07-09T07:45:11;7.68;;;1.70;;
80199;SDS011;69520;44.900;-0.764;2023-07-09T07:47:37;6.80;;;1.57;;
80199;SDS011;69520;44.900;-0.764;2023-07-09T07:50:04;7.22;;;1.50;;
80199;SDS011;69520;44.900;-0.764;2023-07-09T07:52:31;7.80;;;1.65;;
80199;SDS011;69520;44.900;-0.764;2023-07-09T07:54:57;6.07;;;1.58;;
80199;SDS011;69520;44.900;-0.764;2023-07-09T07:57:24;7.38;;;1.48;;
80199;SDS011;69520;44.900;-0.764;2023-07-09T07:59:51;6.63;;;1.27;;
80199;SDS011;69520;44.900;-0.764;2023-07-09T08:02:17;7.40;;;1.42;;
80199;SDS011;69520;44.900;-0.764;2023-07-09T08:04:43;5.20;;;1.50;;
80199;SDS011;69520;44.900;-0.764;2023-07-09T08:07:09;7.55;;;1.90;;
80199;SDS011;69520;44.900;-0.764;2023-07-09T08:09:36;6.18;;;1.45;;
80199;SDS011;69520;44.900;-0.764;2023-07-09T08:12:03;4.93;;;1.17;;
80199;SDS011;69520;44.900;-0.764;2023-07-09T08:14:35;8.23;;;1.75;;
80199;SDS011;69520;44.900;-0.764;2023-07-09T08:17:01;4.57;;;1.20;;
80199;SDS011;69520;44.900;-0.764;2023-07-09T08:19:27;7.15;;;1.73;;
80199;SDS011;69520;44.900;-0.764;2023-07-09T08:21:53;7.70;;;1.60;;
80199;SDS011;69520;44.900;-0.764;2023-07-09T08:24:19;5.93;;;1.40;;
80199;SDS011;69520;44.900;-0.764;2023-07-09T08:26:45;5.45;;;1.70;;
80199;SDS011;69520;44.900;-0.764;2023-07-09T08:29:11;6.50;;;1.48;;
80199;SDS011;69520;44.900;-0.764;2023-07-09T08:31:37;7.05;;;1.63;;
80199;SDS011;69520;44.900;-0.764;2023-07-09T08:34:05;6.05;;;1.80;;
80199;SDS011;69520;44.900;-0.764;2023-07-09T08:36:32;6.23;;;1.60;;
80199;SDS011;69520;44.900;-0.764;2023-07-09T08:38:58;6.13;;;1.67;;
80199;SDS011;69520;44.900;-0.764;2023-07-09T08:49:23;8.20;;;1.90;;
80199;SDS011;69520;44.900;-0.764;2023-07-09T08:51:52;6.97;;;1.90;;
80199;SDS011;69520;44.900;-0.764;2023-07-09T08:56:45;5.70;;;1.70;;
80199;SDS011;69520;44.900;-0.764;2023-07-09T08:59:11;5.18;;;1.73;;
80199;SDS011;69520;44.900;-0.764;2023-07-09T09:01:42;6.73;;;1.77;;
80199;SDS011;69520;44.900;-0.764;2023-07-09T09:04:19;7.07;;;1.63;;
80199;SDS011;69520;44.900;-0.764;2023-07-09T09:06:47;6.95;;;1.70;;
80199;SDS011;69520;44.900;-0.764;2023-07-09T09:11:46;6.18;;;1.65;;
80199;SDS011;69520;44.900;-0.764;2023-07-09T09:16:40;7.65;;;1.80;;
80199;SDS011;69520;44.900;-0.764;2023-07-09T09:19:14;8.35;;;1.75;;
80199;SDS011;69520;44.900;-0.764;2023-07-09T09:21:41;5.03;;;1.40;;
80199;SDS011;69520;44.900;-0.764;2023-07-09T09:24:27;6.00;;;1.58;;
80199;SDS011;69520;44.900;-0.764;2023-07-09T09:26:55;6.73;;;1.83;;
80199;SDS011;69520;44.900;-0.764;2023-07-09T09:29:23;6.53;;;1.70;;
80199;SDS011;69520;44.900;-0.764;2023-07-09T09:31:50;6.80;;;1.80;;
80199;SDS011;69520;44.900;-0.764;2023-07-09T09:34:20;5.70;;;1.58;;
80199;SDS011;69520;44.900;-0.764;2023-07-09T09:36:46;5.47;;;1.75;;
80199;SDS011;69520;44.900;-0.764;2023-07-09T09:39:12;8.10;;;1.80;;
80199;SDS011;69520;44.900;-0.764;2023-07-09T09:41:38;7.35;;;1.52;;
80199;SDS011;69520;44.900;-0.764;2023-07-09T09:44:05;6.65;;;1.90;;
80199;SDS011;69520;44.900;-0.764;2023-07-09T09:46:32;7.30;;;2.30;;
80199;SDS011;69520;44.900;-0.764;2023-07-09T09:49:01;5.57;;;1.67;;
80199;SDS011;69520;44.900;-0.764;2023-07-09T09:51:28;7.43;;;2.23;;
80199;SDS011;69520;44.900;-0.764;2023-07-09T09:53:58;7.72;;;2.10;;
80199;SDS011;69520;44.900;-0.764;2023-07-09T09:56:28;5.88;;;1.80;;
80199;SDS011;69520;44.900;-0.764;2023-07-09T09:58:55;6.22;;;1.73;;
80199;SDS011;69520;44.900;-0.764;2023-07-09T10:01:25;6.53;;;1.95;;
80199;SDS011;69520;44.900;-0.764;2023-07-09T10:03:54;7.63;;;2.37;;
80199;SDS011;69520;44.900;-0.764;2023-07-09T10:06:22;7.55;;;2.05;;
80199;SDS011;69520;44.900;-0.764;2023-07-09T10:16:42;7.70;;;2.93;;
80199;SDS011;69520;44.900;-0.764;2023-07-09T10:19:27;7.63;;;2.17;;
80199;SDS011;69520;44.900;-0.764;2023-07-09T10:22:03;7.25;;;1.90;;
80199;SDS011;69520;44.900;-0.764;2023-07-09T10:24:43;7.88;;;2.10;;
80199;SDS011;69520;44.900;-0.764;2023-07-09T10:27:48;7.40;;;2.00;;
80199;SDS011;69520;44.900;-0.764;2023-07-09T10:30:19;5.80;;;2.03;;
80199;SDS011;69520;44.900;-0.764;2023-07-09T10:32:52;6.90;;;2.03;;
80199;SDS011;69520;44.900;-0.764;2023-07-09T10:35:38;6.43;;;1.88;;
80199;SDS011;69520;44.900;-0.764;2023-07-09T10:40:36;6.67;;;2.00;;
80199;SDS011;69520;44.900;-0.764;2023-07-09T10:43:02;7.27;;;2.07;;
80199;SDS011;69520;44.900;-0.764;2023-07-09T10:45:31;7.75;;;2.20;;
80199;SDS011;69520;44.900;-0.764;2023-07-09T10:48:34;7.15;;;2.00;;
80199;SDS011;69520;44.900;-0.764;2023-07-09T10:50:52;6.47;;;1.60;;
80199;SDS011;69520;44.900;-0.764;2023-07-09T10:58:15;8.20;;;2.05;;
80199;SDS011;69520;44.900;-0.764;2023-07-09T11:00:46;6.35;;;2.08;;
80199;SDS011;69520;44.900;-0.764;2023-07-09T11:03:16;5.80;;;1.90;;
80199;SDS011;69520;44.900;-0.764;2023-07-09T11:05:42;7.57;;;2.20;;
80199;SDS011;69520;44.900;-0.764;2023-07-09T11:08:16;7.73;;;2.10;;
80199;SDS011;69520;44.900;-0.764;2023-07-09T11:11:04;8.73;;;2.25;;
80199;SDS011;69520;44.900;-0.764;2023-07-09T11:13:39;7.25;;;1.95;;
80199;SDS011;69520;44.900;-0.764;2023-07-09T11:16:07;8.57;;;1.92;;
80199;SDS011;69520;44.900;-0.764;2023-07-09T11:18:37;7.43;;;2.42;;
80199;SDS011;69520;44.900;-0.764;2023-07-09T11:21:04;7.93;;;2.40;;
80199;SDS011;69520;44.900;-0.764;2023-07-09T11:23:47;5.78;;;1.70;;
80199;SDS011;69520;44.900;-0.764;2023-07-09T11:26:22;6.30;;;1.98;;
80199;SDS011;69520;44.900;-0.764;2023-07-09T11:28:50;6.13;;;2.10;;
80199;SDS011;69520;44.900;-0.764;2023-07-09T11:31:20;5.95;;;1.90;;
80199;SDS011;69520;44.900;-0.764;2023-07-09T11:33:47;7.40;;;2.03;;
80199;SDS011;69520;44.900;-0.764;2023-07-09T11:36:14;7.32;;;2.10;;
80199;SDS011;69520;44.900;-0.764;2023-07-09T11:38:49;6.97;;;1.88;;
80199;SDS011;69520;44.900;-0.764;2023-07-09T11:41:28;7.97;;;2.20;;
80199;SDS011;69520;44.900;-0.764;2023-07-09T11:44:04;5.70;;;1.80;;
80199;SDS011;69520;44.900;-0.764;2023-07-09T11:46:30;7.50;;;2.00;;
80199;SDS011;69520;44.900;-0.764;2023-07-09T11:48:57;6.00;;;2.10;;
80199;SDS011;69520;44.900;-0.764;2023-07-09T11:51:27;6.28;;;2.05;;
80199;SDS011;69520;44.900;-0.764;2023-07-09T11:53:54;6.40;;;2.10;;
80199;SDS011;69520;44.900;-0.764;2023-07-09T11:56:20;5.90;;;1.83;;
80199;SDS011;69520;44.900;-0.764;2023-07-09T11:58:50;7.07;;;2.30;;
80199;SDS011;69520;44.900;-0.764;2023-07-09T12:01:19;5.70;;;2.20;;
80199;SDS011;69520;44.900;-0.764;2023-07-09T12:03:46;5.90;;;1.75;;
80199;SDS011;69520;44.900;-0.764;2023-07-09T12:06:16;7.18;;;2.17;;
80199;SDS011;69520;44.900;-0.764;2023-07-09T12:08:43;6.15;;;2.10;;
80199;SDS011;69520;44.900;-0.764;2023-07-09T12:13:49;5.50;;;2.10;;
80199;SDS011;69520;44.900;-0.764;2023-07-09T12:16:26;5.97;;;1.77;;
80199;SDS011;69520;44.900;-0.764;2023-07-09T12:18:52;6.50;;;2.05;;
80199;SDS011;69520;44.900;-0.764;2023-07-09T12:21:19;6.60;;;2.00;;
80199;SDS011;69520;44.900;-0.764;2023-07-09T12:23:45;6.37;;;2.00;;
80199;SDS011;69520;44.900;-0.764;2023-07-09T12:26:13;6.00;;;1.98;;
80199;SDS011;69520;44.900;-0.764;2023-07-09T12:28:39;6.07;;;1.75;;
80199;SDS011;69520;44.900;-0.764;2023-07-09T12:31:10;8.90;;;2.40;;
80199;SDS011;69520;44.900;-0.764;2023-07-09T12:33:38;7.78;;;2.20;;
80199;SDS011;69520;44.900;-0.764;2023-07-09T12:36:05;6.20;;;2.13;;
80199;SDS011;69520;44.900;-0.764;2023-07-09T12:38:42;8.30;;;1.95;;
80199;SDS011;69520;44.900;-0.764;2023-07-09T12:43:53;5.97;;;2.00;;
80199;SDS011;69520;44.900;-0.764;2023-07-09T12:46:22;7.55;;;1.90;;
80199;SDS011;69520;44.900;-0.764;2023-07-09T12:48:49;6.87;;;1.90;;
80199;SDS011;69520;44.900;-0.764;2023-07-09T12:51:24;6.75;;;1.90;;
80199;SDS011;69520;44.900;-0.764;2023-07-09T12:56:37;6.85;;;2.20;;
80199;SDS011;69520;44.900;-0.764;2023-07-09T12:59:05;7.82;;;2.17;;
80199;SDS011;69520;44.900;-0.764;2023-07-09T13:01:38;7.23;;;2.30;;
80199;SDS011;69520;44.900;-0.764;2023-07-09T13:04:04;6.60;;;1.80;;
80199;SDS011;69520;44.900;-0.764;2023-07-09T13:06:36;7.10;;;1.77;;
80199;SDS011;69520;44.900;-0.764;2023-07-09T13:09:09;7.88;;;1.70;;
80199;SDS011;69520;44.900;-0.764;2023-07-09T13:11:37;7.10;;;1.80;;
80199;SDS011;69520;44.900;-0.764;2023-07-09T13:14:20;8.23;;;2.13;;
80199;SDS011;69520;44.900;-0.764;2023-07-09T13:16:47;7.97;;;2.25;;
80199;SDS011;69520;44.900;-0.764;2023-07-09T13:19:13;7.72;;;1.95;;
80199;SDS011;69520;44.900;-0.764;2023-07-09T13:21:39;6.95;;;2.00;;
80199;SDS011;69520;44.900;-0.764;2023-07-09T13:24:17;6.30;;;1.80;;
80199;SDS011;69520;44.900;-0.764;2023-07-09T13:26:44;6.70;;;1.90;;
80199;SDS011;69520;44.900;-0.764;2023-07-09T13:29:13;6.13;;;1.73;;
80199;SDS011;69520;44.900;-0.764;2023-07-09T13:31:39;6.28;;;1.80;;
80199;SDS011;69520;44.900;-0.764;2023-07-09T13:34:08;7.57;;;2.08;;
80199;SDS011;69520;44.900;-0.764;2023-07-09T13:36:39;7.90;;;1.75;;
80199;SDS011;69520;44.900;-0.764;2023-07-09T13:39:07;6.93;;;1.53;;
80199;SDS011;69520;44.900;-0.764;2023-07-09T13:41:33;6.95;;;2.20;;
80199;SDS011;69520;44.900;-0.764;2023-07-09T13:43:59;5.90;;;1.77;;
80199;SDS011;69520;44.900;-0.764;2023-07-09T13:46:25;6.78;;;1.80;;
80199;SDS011;69520;44.900;-0.764;2023-07-09T13:48:51;6.40;;;2.00;;
80199;SDS011;69520;44.900;-0.764;2023-07-09T13:51:19;6.83;;;1.90;;
80199;SDS011;69520;44.900;-0.764;2023-07-09T13:53:45;7.55;;;2.05;;
80199;SDS011;69520;44.900;-0.764;2023-07-09T13:56:11;6.88;;;1.73;;
80199;SDS011;69520;44.900;-0.764;2023-07-09T13:58:37;6.05;;;1.95;;
80199;SDS011;69520;44.900;-0.764;2023-07-09T14:01:11;6.45;;;1.90;;
80199;SDS011;69520;44.900;-0.764;2023-07-09T14:03:38;7.03;;;1.90;;
80199;SDS011;69520;44.900;-0.764;2023-07-09T14:06:04;6.72;;;1.88;;
80199;SDS011;69520;44.900;-0.764;2023-07-09T14:08:30;5.63;;;1.70;;
80199;SDS011;69520;44.900;-0.764;2023-07-09T14:10:56;5.72;;;1.98;;
80199;SDS011;69520;44.900;-0.764;2023-07-09T14:13:23;5.85;;;1.90;;
80199;SDS011;69520;44.900;-0.764;2023-07-09T14:15:50;5.60;;;1.70;;
80199;SDS011;69520;44.900;-0.764;2023-07-09T14:18:18;5.93;;;1.80;;
80199;SDS011;69520;44.900;-0.764;2023-07-09T14:20:44;6.22;;;1.60;;
80199;SDS011;69520;44.900;-0.764;2023-07-09T14:23:11;6.85;;;1.88;;
80199;SDS011;69520;44.900;-0.764;2023-07-09T14:25:37;5.75;;;1.70;;
80199;SDS011;69520;44.900;-0.764;2023-07-09T14:28:04;6.10;;;1.73;;
80199;SDS011;69520;44.900;-0.764;2023-07-09T14:30:30;5.57;;;1.65;;
80199;SDS011;69520;44.900;-0.764;2023-07-09T14:32:58;6.55;;;1.70;;
80199;SDS011;69520;44.900;-0.764;2023-07-09T14:35:25;4.93;;;1.60;;
80199;SDS011;69520;44.900;-0.764;2023-07-09T14:37:52;4.95;;;1.60;;
80199;SDS011;69520;44.900;-0.764;2023-07-09T14:40:19;6.47;;;2.00;;
80199;SDS011;69520;44.900;-0.764;2023-07-09T14:42:46;6.35;;;1.98;;
80199;SDS011;69520;44.900;-0.764;2023-07-09T14:47:44;5.68;;;1.60;;
80199;SDS011;69520;44.900;-0.764;2023-07-09T14:50:10;6.97;;;1.65;;
80199;SDS011;69520;44.900;-0.764;2023-07-09T14:52:36;6.27;;;1.90;;
80199;SDS011;69520;44.900;-0.764;2023-07-09T14:55:03;6.13;;;1.60;;
80199;SDS011;69520;44.900;-0.764;2023-07-09T14:57:29;6.97;;;1.70;;
80199;SDS011;69520;44.900;-0.764;2023-07-09T14:59:56;4.80;;;1.70;;
80199;SDS011;69520;44.900;-0.764;2023-07-09T15:02:33;5.10;;;1.60;;
80199;SDS011;69520;44.900;-0.764;2023-07-09T15:05:00;6.00;;;1.40;;
80199;SDS011;69520;44.900;-0.764;2023-07-09T15:07:27;6.38;;;1.70;;
80199;SDS011;69520;44.900;-0.764;2023-07-09T15:09:55;5.85;;;1.60;;
80199;SDS011;69520;44.900;-0.764;2023-07-09T15:12:24;5.90;;;1.50;;
80199;SDS011;69520;44.900;-0.764;2023-07-09T15:14:51;5.93;;;1.30;;
80199;SDS011;69520;44.900;-0.764;2023-07-09T15:17:17;5.80;;;1.23;;
80199;SDS011;69520;44.900;-0.764;2023-07-09T15:19:43;6.15;;;1.45;;
80199;SDS011;69520;44.900;-0.764;2023-07-09T15:22:26;5.97;;;1.70;;